Aérodrome :
LOGIN :

S'inscrire | Disclaimer

   EN    FR    IT 

 










Légende :    VFR   VFR Marginal   IFR   IFR Intensif   IFR Très Intensif
Visi : 
Plafond : 
>= 8 km
>= 3000ft
5 à 8 km
1000 à 3000 ft
1500m à 5 km
500 à 1000 ft
800 à 1500m
200 à 500 ft
< 800m
< 200 ft
Symboles :   Orages  Brouillard  Fortes neiges  Fortes précipitations  Vent > 20 kt
SIGMETs :   Divers  Orages  Givrage  Turbulence  Onde Orograph.  Cendres Volcan.







- Altitude de l'aérodrome : 247 ft
- Code IATA : BLL


EKBI - Billund

DERNIER METAR :
  • 240650Z AUTO 30010KT 9999NDV OVC014/// 13/09 Q1017

METARs EXPIRÉS :
  • 240620Z AUTO 31011KT 270V330 9999NDV OVC014/// 13/09 Q1017
  • 240550Z AUTO 30009KT 270V340 9999NDV OVC014/// 12/10 Q1017
  • 240520Z AUTO 30011KT 9999NDV OVC010/// 12/10 Q1017
  • 240450Z AUTO 29011KT 9000NDV OVC010/// 12/10 Q1017
  • 240420Z AUTO 29011KT 9000NDV OVC012/// 12/10 Q1017

TAF TAF EKBI
Valide du 24 à 06h jusqu'au 25 à 06h UTC


240514Z 2406/2506 29010KT 9999 BKN012
BECMG 2406/2408 BKN020
PROB40 2500/2506 4000 BR BKN008
Pas de NOTAMs connus pour ce terrain.



MET'MAP, la Météo Aéronautique d'un coup d'oeil ! - Copyright ORBIFLY Décembre 2007 - Disclaimer

ORBIFLY MET'MAP TEAM :

Programmation & Développement : Alexandra Zaïnal
Conception & Développement : Baudouin d'Aumeries
Co-Programmation & Développement : Marc-Olivier Méhu
Soutien technique & logistique : Manuel Goepfert

Contact : metmap@orbifly.com




SOURCES & CREDITS :

   NOAA